Terminal Aerodrome Forecast
Issued by NWS

Home | Current Version | Previous Version | Text Only | Print | Product List | Glossary On
Versions: 1 2 3 4 5 6 7 8 9 10 11 12 13 14 15 16
000
FTUS45 KBOI 080526
TAFTWF
TAF
KTWF 080526Z 0806/0906 VRB06KT P6SM SCT250
     FM081400 09014G24KT P6SM BKN050 OVC100
     FM082000 10015G25KT 3SM -SHSN OVC015
     FM082300 10013G23KT 2SM -SN OVC010=

USA.gov is the U.S. government's official web portal to all federal, state and local government web resources and services.